Time;durP1;ratioP1;P1;durP2;ratioP2;P2;SDS_P1;SDS_P2;PMS_P1;PMS_P2;Temp;Humidity;BMP_temperature;BMP_pressure;BME280_temperature;BME280_humidity;BME280_pressure;Samples;Min_cycle;Max_cycle;Signal;HPM_P1;HPM_P2
2022/09/29 00:00:15;;;;;;;2.67;2.33;;;13.20;99.90;;;;;;1034828;28;20041;-73
2022/09/29 00:00:50;;;;;;;3.43;2.40;;;13.20;99.90;;;;;;1031225;28;20022;-73
2022/09/29 00:01:22;;;;;;;2.53;2.15;;;13.20;99.90;;;;;;1031229;28;20461;-73
2022/09/29 00:01:52;;;;;;;2.80;2.40;;;13.20;99.90;;;;;;1035043;28;20018;-73
2022/09/29 00:02:23;;;;;;;3.10;2.40;;;13.20;99.90;;;;;;1034502;28;20037;-73
2022/09/29 00:02:53;;;;;;;2.83;2.20;;;13.20;99.90;;;;;;1035090;28;20022;-73
2022/09/29 00:03:24;;;;;;;2.20;1.90;;;13.20;99.90;;;;;;1038928;28;20416;-73
2022/09/29 00:03:55;;;;;;;2.33;2.13;;;13.20;99.90;;;;;;1038625;28;20033;-74
2022/09/29 00:04:25;;;;;;;2.53;2.30;;;13.20;99.90;;;;;;1034943;28;20026;-73
2022/09/29 00:04:56;;;;;;;2.87;2.17;;;13.20;99.90;;;;;;1034694;28;20029;-74
2022/09/29 00:05:27;;;;;;;2.50;1.80;;;13.20;99.90;;;;;;1034340;28;20061;-74
2022/09/29 00:05:57;;;;;;;2.00;1.80;;;13.20;99.90;;;;;;1035572;28;20021;-73
2022/09/29 00:06:28;;;;;;;2.43;2.00;;;13.20;99.90;;;;;;1034483;28;20732;-73
2022/09/29 00:06:59;;;;;;;2.40;2.03;;;13.20;99.90;;;;;;1035209;28;20034;-73
2022/09/29 00:07:31;;;;;;;3.07;2.77;;;13.20;99.90;;;;;;1034610;28;20050;-73
2022/09/29 00:08:01;;;;;;;2.20;1.90;;;13.20;99.90;;;;;;1035122;28;20010;-74
2022/09/29 00:08:32;;;;;;;2.87;2.40;;;13.20;99.90;;;;;;1036985;28;20026;-73
2022/09/29 00:09:02;;;;;;;2.70;2.27;;;13.20;99.90;;;;;;1038655;28;20025;-74
2022/09/29 00:09:33;;;;;;;3.13;2.50;;;13.10;99.90;;;;;;1039319;28;20028;-73
2022/09/29 00:10:04;;;;;;;3.13;2.30;;;13.10;99.90;;;;;;1035834;28;20370;-73
2022/09/29 00:10:39;;;;;;;2.45;2.25;;;13.10;99.90;;;;;;1034536;28;20018;-73
2022/09/29 00:11:13;;;;;;;2.20;2.00;;;13.10;99.90;;;;;;1035697;28;20504;-73
2022/09/29 00:11:43;;;;;;;4.05;2.33;;;13.10;99.90;;;;;;1034563;28;20033;-73
2022/09/29 00:12:14;;;;;;;2.70;2.33;;;13.10;99.90;;;;;;1036001;28;20025;-73
2022/09/29 00:12:46;;;;;;;2.23;1.93;;;13.10;99.90;;;;;;1034850;28;20771;-73
2022/09/29 00:13:17;;;;;;;2.83;2.30;;;13.20;99.90;;;;;;1034545;28;20508;-73
2022/09/29 00:13:48;;;;;;;2.63;2.15;;;13.20;99.90;;;;;;1034915;28;20014;-73
2022/09/29 00:14:19;;;;;;;2.43;2.00;;;13.20;99.90;;;;;;1034665;28;20022;-74
2022/09/29 00:14:50;;;;;;;4.43;2.20;;;13.20;99.90;;;;;;1034958;28;20277;-73
2022/09/29 00:15:20;;;;;;;2.65;2.15;;;13.20;99.90;;;;;;1034494;28;20440;-73
2022/09/29 00:16:00;;;;;;;2.80;2.23;;;13.20;99.90;;;;;;1034659;28;20741;-73
2022/09/29 00:16:30;;;;;;;3.25;2.17;;;13.20;99.90;;;;;;1035052;28;20018;-73
2022/09/29 00:17:01;;;;;;;2.83;2.13;;;13.20;99.90;;;;;;1034336;28;20018;-73
2022/09/29 00:17:31;;;;;;;2.90;2.27;;;13.20;99.90;;;;;;1035398;28;20053;-73
2022/09/29 00:18:03;;;;;;;3.17;1.97;;;13.20;99.90;;;;;;1034431;28;20018;-73
2022/09/29 00:18:34;;;;;;;2.78;2.28;;;13.20;99.90;;;;;;1034901;28;20370;-74
2022/09/29 00:19:05;;;;;;;2.20;1.80;;;13.20;99.90;;;;;;1035154;28;20097;-73
2022/09/29 00:19:35;;;;;;;4.30;2.27;;;13.20;99.90;;;;;;1034980;28;20018;-73
2022/09/29 00:20:07;;;;;;;4.23;2.27;;;13.20;99.90;;;;;;1035737;28;20013;-74
2022/09/29 00:20:38;;;;;;;2.50;2.00;;;13.20;99.90;;;;;;1034930;28;20097;-73
2022/09/29 00:21:15;;;;;;;2.70;2.20;;;13.20;99.90;;;;;;1034828;28;20018;-73
2022/09/29 00:21:45;;;;;;;2.38;1.85;;;13.20;99.90;;;;;;1034862;28;20049;-73
2022/09/29 00:22:16;;;;;;;2.07;1.70;;;13.20;99.90;;;;;;1034486;28;20010;-73
2022/09/29 00:22:50;;;;;;;2.77;2.17;;;13.20;99.90;;;;;;1035234;28;20016;-73
2022/09/29 00:23:24;;;;;;;2.75;1.80;;;13.20;99.90;;;;;;1034320;28;20545;-73
2022/09/29 00:23:54;;;;;;;1.95;1.58;;;13.20;99.90;;;;;;1035831;28;20017;-74
2022/09/29 00:24:25;;;;;;;2.17;1.83;;;13.20;99.90;;;;;;1034846;28;20014;-73
2022/09/29 00:24:56;;;;;;;1.95;1.80;;;13.20;99.90;;;;;;1035044;28;20073;-73
2022/09/29 00:25:27;;;;;;;2.50;1.87;;;13.20;99.90;;;;;;1035553;28;20445;-74
2022/09/29 00:26:04;;;;;;;2.72;1.80;;;13.20;99.90;;;;;;1034525;28;20009;-73
2022/09/29 00:26:34;;;;;;;2.10;1.90;;;13.10;99.90;;;;;;1035707;28;20018;-73
2022/09/29 00:27:05;;;;;;;2.47;2.17;;;13.10;99.90;;;;;;1034779;28;20038;-73
2022/09/29 00:27:35;;;;;;;2.43;1.70;;;13.10;99.90;;;;;;1034061;28;20532;-73
2022/09/29 00:28:06;;;;;;;1.90;1.80;;;13.10;99.90;;;;;;1035436;28;20010;-73
2022/09/29 00:28:39;;;;;;;1.73;1.60;;;13.10;99.90;;;;;;1034187;28;20087;-73
2022/09/29 00:29:10;;;;;;;2.20;1.80;;;;;;;;;;1035692;28;20132;-73
2022/09/29 00:29:41;;;;;;;1.52;1.30;;;13.10;99.90;;;;;;1038400;28;20682;-73
2022/09/29 00:30:11;;;;;;;2.73;1.70;;;13.10;99.90;;;;;;1034553;28;20071;-73
2022/09/29 00:30:42;;;;;;;2.73;1.80;;;13.10;99.90;;;;;;1034877;28;20017;-73
2022/09/29 00:31:13;;;;;;;2.40;2.20;;;13.10;99.90;;;;;;1034582;28;20030;-73
2022/09/29 00:31:43;;;;;;;2.03;1.83;;;13.10;99.90;;;;;;1034904;28;20041;-73
2022/09/29 00:32:14;;;;;;;2.13;1.90;;;13.10;99.90;;;;;;1034965;28;20018;-73
2022/09/29 00:32:45;;;;;;;2.00;1.80;;;13.10;99.90;;;;;;1034283;28;20022;-73
2022/09/29 00:33:15;;;;;;;2.93;2.13;;;13.10;99.90;;;;;;1039521;28;20013;-73
2022/09/29 00:33:46;;;;;;;2.50;2.03;;;13.00;99.90;;;;;;1038218;28;20151;-73
2022/09/29 00:34:16;;;;;;;2.27;1.53;;;13.00;99.90;;;;;;1038896;28;20017;-72
2022/09/29 00:34:47;;;;;;;2.13;1.93;;;13.00;99.90;;;;;;1035554;28;20021;-73
2022/09/29 00:35:18;;;;;;;2.10;1.90;;;13.00;99.90;;;;;;1034953;28;20412;-72
2022/09/29 00:36:03;;;;;;;2.37;1.87;;;13.00;99.90;;;;;;1034972;28;20037;-73
2022/09/29 00:36:34;;;;;;;2.03;1.80;;;13.00;99.90;;;;;;1030495;28;20017;-73
2022/09/29 00:37:04;;;;;;;2.70;1.87;;;13.00;99.90;;;;;;1031451;28;20022;-73
2022/09/29 00:37:36;;;;;;;2.63;1.80;;;13.00;99.90;;;;;;1032492;28;20010;-73
2022/09/29 00:38:06;;;;;;;2.28;2.00;;;13.00;99.90;;;;;;1033362;28;20006;-72
2022/09/29 00:38:37;;;;;;;3.83;2.03;;;13.00;99.90;;;;;;1030976;28;20017;-73
2022/09/29 00:39:08;;;;;;;2.83;1.95;;;13.00;99.90;;;;;;1030454;28;20707;-73
2022/09/29 00:39:38;;;;;;;1.93;1.67;;;13.00;99.90;;;;;;1033099;28;20489;-73
2022/09/29 00:40:09;;;;;;;2.20;1.90;;;13.00;99.90;;;;;;1034644;28;20068;-73
2022/09/29 00:40:40;;;;;;;1.98;1.50;;;13.00;99.90;;;;;;1034497;28;20465;-73
2022/09/29 00:41:17;;;;;;;2.07;1.60;;;13.00;99.90;;;;;;1035129;28;20113;-73
2022/09/29 00:41:47;;;;;;;2.95;1.92;;;12.90;99.90;;;;;;1034450;28;20687;-74
2022/09/29 00:42:19;;;;;;;1.60;1.50;;;12.90;99.90;;;;;;1035651;28;20492;-73
2022/09/29 00:42:50;;;;;;;1.73;1.58;;;12.90;99.90;;;;;;1034381;28;20036;-74
2022/09/29 00:43:49;;;;;;;1.93;1.73;;;12.90;99.90;;;;;;1034310;28;20025;-73
2022/09/29 00:44:20;;;;;;;2.10;1.63;;;12.90;99.90;;;;;;1038431;28;20018;-73
2022/09/29 00:45:18;;;;;;;2.43;1.87;;;13.00;99.90;;;;;;1035202;28;20050;-74
2022/09/29 00:45:53;;;;;;;2.28;1.80;;;12.90;99.90;;;;;;1028730;28;20680;-74
2022/09/29 00:46:32;;;;;;;2.92;1.65;;;12.90;99.90;;;;;;1031409;28;20129;-73
2022/09/29 00:47:05;;;;;;;2.63;2.10;;;12.90;99.90;;;;;;1034701;28;20046;-74
2022/09/29 00:47:38;;;;;;;2.00;1.80;;;12.90;99.90;;;;;;1037395;28;20088;-73
2022/09/29 00:48:16;;;;;;;2.30;1.70;;;12.90;99.90;;;;;;1038515;28;20021;-73
2022/09/29 00:48:47;;;;;;;2.58;1.95;;;12.90;99.90;;;;;;1035041;28;20204;-74
2022/09/29 00:49:52;;;;;;;3.22;2.22;;;12.90;99.90;;;;;;1034665;28;20105;-73
2022/09/29 00:50:34;;;;;;;1.95;1.77;;;12.90;99.90;;;;;;1027771;28;20019;-73
2022/09/29 00:51:05;;;;;;;2.28;2.03;;;12.90;99.90;;;;;;1034533;28;20033;-73
2022/09/29 00:51:38;;;;;;;5.57;2.20;;;12.90;99.90;;;;;;1037352;28;20029;-73
2022/09/29 00:52:21;;;;;;;2.38;1.90;;;12.90;99.90;;;;;;1034594;28;20033;-73
2022/09/29 00:52:59;;;;;;;2.08;1.88;;;12.90;99.90;;;;;;1035562;28;20029;-73
2022/09/29 00:53:31;;;;;;;1.75;1.40;;;12.90;99.90;;;;;;1034397;28;20026;-73
2022/09/29 00:54:02;;;;;;;1.73;1.63;;;12.90;99.90;;;;;;1035118;28;20079;-73
2022/09/29 00:54:59;;;;;;;1.65;1.42;;;12.90;99.90;;;;;;1034934;28;20642;-73
2022/09/29 00:55:38;;;;;;;2.60;1.70;;;12.90;99.90;;;;;;1031980;28;20053;-74
2022/09/29 00:56:13;;;;;;;1.55;1.45;;;12.90;99.90;;;;;;1035111;28;20033;-73
2022/09/29 00:56:44;;;;;;;1.67;1.58;;;12.90;99.90;;;;;;1038075;28;20033;-73
2022/09/29 00:57:19;;;;;;;1.98;1.60;;;12.90;99.90;;;;;;1039467;28;20057;-72
2022/09/29 00:57:55;;;;;;;1.98;1.77;;;12.90;99.90;;;;;;1035397;28;20022;-72
2022/09/29 00:59:01;;;;;;;2.15;1.80;;;12.90;99.90;;;;;;1035442;28;20064;-72
2022/09/29 00:59:49;;;;;;;2.15;1.95;;;12.90;99.90;;;;;;1039817;28;20065;-72
2022/09/29 01:00:20;;;;;;;1.90;1.70;;;12.90;99.90;;;;;;1039033;28;20029;-73
2022/09/29 01:00:51;;;;;;;2.13;1.67;;;12.90;99.90;;;;;;1032004;28;20088;-72
2022/09/29 01:01:24;;;;;;;2.58;1.88;;;13.00;99.90;;;;;;1029823;28;20117;-72
2022/09/29 01:01:54;;;;;;;2.15;1.95;;;13.00;99.90;;;;;;1034720;28;20024;-72
2022/09/29 01:02:25;;;;;;;2.03;1.80;;;13.00;99.90;;;;;;1035384;28;20022;-73
2022/09/29 01:03:13;;;;;;;2.55;1.50;;;13.00;99.90;;;;;;1035460;28;20080;-72
2022/09/29 01:03:46;;;;;;;1.70;1.50;;;13.00;99.90;;;;;;1031696;28;20014;-73
2022/09/29 01:04:18;;;;;;;2.00;1.80;;;13.00;99.90;;;;;;1035232;28;20022;-72
2022/09/29 01:04:52;;;;;;;2.38;1.70;;;13.00;99.90;;;;;;1036059;28;20448;-73
2022/09/29 01:05:27;;;;;;;1.70;1.60;;;13.00;99.90;;;;;;1035223;28;20104;-73
2022/09/29 01:06:01;;;;;;;2.22;1.83;;;12.90;99.90;;;;;;1037518;28;20103;-72
2022/09/29 01:06:37;;;;;;;1.77;1.55;;;12.90;99.90;;;;;;1035150;28;20121;-72
2022/09/29 01:07:09;;;;;;;2.78;2.00;;;12.90;99.90;;;;;;1035831;28;20025;-72
2022/09/29 01:07:42;;;;;;;1.98;1.70;;;12.90;99.90;;;;;;1035121;28;20389;-73
2022/09/29 01:08:27;;;;;;;3.13;1.83;;;12.90;99.90;;;;;;1036895;28;20021;-73
2022/09/29 01:09:00;;;;;;;2.88;2.03;;;12.90;99.90;;;;;;1035344;28;20722;-72
2022/09/29 01:09:33;;;;;;;2.30;1.60;;;12.90;99.90;;;;;;1035053;28;20010;-73
2022/09/29 01:10:05;;;;;;;1.90;1.70;;;12.90;99.90;;;;;;1035784;28;20372;-73
2022/09/29 01:10:37;;;;;;;1.95;1.67;;;12.90;99.90;;;;;;1035608;28;20612;-73
2022/09/29 01:11:11;;;;;;;2.28;1.90;;;12.90;99.90;;;;;;1040231;28;20057;-72
2022/09/29 01:11:42;;;;;;;1.48;1.38;;;12.90;99.90;;;;;;1038960;28;20022;-73
2022/09/29 01:12:12;;;;;;;2.10;1.80;;;12.90;99.90;;;;;;1039389;28;20416;-73
2022/09/29 01:12:45;;;;;;;1.67;1.57;;;12.90;99.90;;;;;;1039481;28;20452;-73
2022/09/29 01:13:17;;;;;;;1.45;1.35;;;12.90;99.90;;;;;;1036072;28;20013;-73
2022/09/29 01:13:48;;;;;;;1.65;1.55;;;12.90;99.90;;;;;;1036244;28;20021;-73
2022/09/29 01:14:20;;;;;;;2.25;1.75;;;12.80;99.90;;;;;;1035530;28;20033;-74
2022/09/29 01:14:53;;;;;;;1.75;1.45;;;12.80;99.90;;;;;;1034958;28;20038;-73
2022/09/29 01:15:24;;;;;;;2.53;1.67;;;12.80;99.90;;;;;;1036016;28;20021;-73
2022/09/29 01:15:55;;;;;;;2.13;1.83;;;12.80;99.90;;;;;;1035169;28;20017;-73
2022/09/29 01:16:25;;;;;;;1.60;1.50;;;12.80;99.90;;;;;;1036591;28;20030;-73
2022/09/29 01:16:56;;;;;;;4.23;1.60;;;12.80;99.90;;;;;;1034966;28;20040;-74
2022/09/29 01:17:27;;;;;;;2.00;1.80;;;12.80;99.90;;;;;;1035104;28;20036;-73
2022/09/29 01:17:57;;;;;;;2.85;2.05;;;12.80;99.90;;;;;;1035933;28;20010;-73
2022/09/29 01:18:29;;;;;;;2.80;1.70;;;12.80;99.90;;;;;;1035821;28;20026;-73
2022/09/29 01:19:15;;;;;;;2.58;1.90;;;12.80;99.90;;;;;;1036262;28;20040;-73
2022/09/29 01:20:15;;;;;;;2.38;1.77;;;12.80;99.90;;;;;;1035207;28;20025;-73
2022/09/29 01:21:18;;;;;;;2.45;1.80;;;12.80;99.90;;;;;;1035464;28;20018;-73
2022/09/29 01:21:55;;;;;;;2.33;1.60;;;12.80;99.90;;;;;;1023667;28;20050;-73
2022/09/29 01:22:59;;;;;;;2.25;1.52;;;12.80;99.90;;;;;;1029092;28;20022;-74
2022/09/29 01:23:29;;;;;;;2.55;1.70;;;12.80;99.90;;;;;;1035611;28;20040;-73
2022/09/29 01:24:18;;;;;;;2.27;1.73;;;12.70;99.90;;;;;;1035242;28;20018;-73
2022/09/29 01:25:16;;;;;;;2.15;1.67;;;12.80;99.90;;;;;;1035243;28;20025;-73
2022/09/29 01:26:12;;;;;;;1.86;1.64;;;12.80;99.90;;;;;;1040186;28;20496;-73
2022/09/29 01:27:09;;;;;;;1.73;1.55;;;12.70;99.90;;;;;;1031171;28;20153;-74
2022/09/29 01:27:45;;;;;;;2.38;1.60;;;12.70;99.90;;;;;;1032420;28;20046;-73
2022/09/29 01:28:53;;;;;;;1.45;1.35;;;12.70;99.90;;;;;;1036344;28;20384;-73
2022/09/29 01:30:00;;;;;;;2.08;1.88;;;12.80;99.90;;;;;;1039618;28;20018;-73
2022/09/29 01:31:05;;;;;;;2.33;1.83;;;12.70;99.90;;;;;;1039145;28;20082;-73
2022/09/29 01:31:46;;;;;;;2.22;1.67;;;12.70;99.90;;;;;;1039340;28;20627;-73
2022/09/29 01:32:36;;;;;;;2.28;1.80;;;12.70;99.90;;;;;;1040152;28;20085;-73
2022/09/29 01:33:20;;;;;;;2.45;1.77;;;12.70;99.90;;;;;;1035526;28;20109;-73
2022/09/29 01:34:30;;;;;;;2.80;1.73;;;12.70;99.90;;;;;;1036075;28;20084;-75
2022/09/29 01:35:29;;;;;;;1.92;1.73;;;12.70;99.90;;;;;;1032294;28;20019;-73
2022/09/29 01:36:07;;;;;;;1.73;1.63;;;12.70;99.90;;;;;;1035676;28;20529;-74
2022/09/29 01:37:09;;;;;;;1.60;1.50;;;12.70;99.90;;;;;;1031238;28;20061;-73
2022/09/29 01:37:57;;;;;;;2.08;1.60;;;12.70;99.90;;;;;;1031702;28;20780;-73
2022/09/29 01:38:33;;;;;;;2.00;1.60;;;12.70;99.90;;;;;;1033521;28;20022;-73
2022/09/29 01:39:18;;;;;;;1.92;1.73;;;12.70;99.90;;;;;;1035624;28;20022;-74
2022/09/29 01:40:17;;;;;;;1.48;1.30;;;12.70;99.90;;;;;;1038630;28;20022;-72
2022/09/29 01:40:57;;;;;;;2.00;1.80;;;12.70;99.90;;;;;;1035058;28;20730;-72
2022/09/29 01:41:39;;;;;;;2.47;1.90;;;12.70;99.90;;;;;;1035674;28;20066;-72
2022/09/29 01:42:28;;;;;;;2.58;1.83;;;12.70;99.90;;;;;;1039171;28;20024;-71
2022/09/29 01:43:07;;;;;;;2.03;1.85;;;12.70;99.90;;;;;;1039120;28;20022;-72
2022/09/29 01:43:45;;;;;;;2.00;1.75;;;12.80;99.90;;;;;;1039069;28;20484;-72
2022/09/29 01:44:16;;;;;;;;;;;12.80;99.90;;;;;;1036440;28;20557;-72
2022/09/29 01:44:59;;;;;;;1.70;1.60;;;12.80;99.90;;;;;;1039121;28;20693;-72
2022/09/29 01:45:46;;;;;;;2.40;1.70;;;12.80;99.90;;;;;;1035637;28;20802;-72
2022/09/29 01:46:54;;;;;;;2.20;2.00;;;12.80;99.90;;;;;;1030964;28;20022;-72
2022/09/29 01:47:30;;;;;;;2.60;1.90;;;12.80;99.90;;;;;;1033847;28;20053;-72
2022/09/29 01:48:14;;;;;;;3.47;1.55;;;12.80;99.90;;;;;;1036025;28;20025;-72
2022/09/29 01:48:49;;;;;;;2.92;2.22;;;12.80;99.90;;;;;;1039008;28;20013;-71
2022/09/29 01:49:22;;;;;;;2.63;1.88;;;12.80;99.90;;;;;;1039978;28;20006;-72
2022/09/29 01:50:01;;;;;;;1.75;1.50;;;12.80;99.90;;;;;;1039347;28;20021;-72
2022/09/29 01:50:37;;;;;;;2.38;1.95;;;12.80;99.90;;;;;;1037755;28;20049;-72
2022/09/29 01:51:15;;;;;;;2.00;1.45;;;12.80;99.90;;;;;;1035574;28;20036;-72
2022/09/29 01:52:12;;;;;;;1.55;1.45;;;12.80;99.90;;;;;;1035502;28;20084;-72
2022/09/29 01:52:48;;;;;;;;;;;12.80;99.90;;;;;;1035350;28;20026;-72
2022/09/29 01:53:26;;;;;;;1.92;1.73;;;12.80;99.90;;;;;;1035752;28;19905;-72
2022/09/29 01:54:04;;;;;;;2.95;2.10;;;12.80;99.90;;;;;;1034955;28;20018;-72
2022/09/29 01:54:44;;;;;;;1.65;1.45;;;12.70;99.90;;;;;;1038812;28;20041;-72
2022/09/29 01:55:19;;;;;;;2.90;2.28;;;12.70;99.90;;;;;;1039236;28;20056;-72
2022/09/29 01:55:54;;;;;;;2.95;1.73;;;12.70;99.90;;;;;;1037239;28;20018;-71
2022/09/29 01:56:34;;;;;;;3.05;1.98;;;12.80;99.90;;;;;;1035312;28;20354;-72
2022/09/29 01:57:17;;;;;;;1.77;1.45;;;12.70;99.90;;;;;;1036187;28;20426;-71
2022/09/29 01:58:00;;;;;;;1.90;1.70;;;12.70;99.90;;;;;;1035305;28;20045;-71
2022/09/29 01:58:50;;;;;;;1.83;1.73;;;12.70;99.90;;;;;;1036058;28;20010;-72
2022/09/29 01:59:31;;;;;;;2.70;2.10;;;12.70;99.90;;;;;;1035338;28;20016;-71
2022/09/29 02:00:09;;;;;;;2.33;1.80;;;12.70;99.90;;;;;;1035281;28;20030;-72
2022/09/29 02:00:57;;;;;;;1.67;1.55;;;12.70;99.90;;;;;;1035274;28;20035;-72
2022/09/29 02:01:33;;;;;;;1.64;1.50;;;12.70;99.90;;;;;;1039103;28;20079;-71
2022/09/29 02:02:09;;;;;;;2.08;1.80;;;12.70;99.90;;;;;;1039350;28;20022;-72
2022/09/29 02:02:45;;;;;;;2.20;1.80;;;12.70;99.90;;;;;;1039378;28;20439;-72
2022/09/29 02:03:26;;;;;;;1.73;1.55;;;12.70;99.90;;;;;;1036810;28;20794;-72
2022/09/29 02:04:06;;;;;;;2.60;1.58;;;12.70;99.90;;;;;;1035247;28;20392;-70
2022/09/29 02:04:52;;;;;;;2.22;1.65;;;12.70;99.90;;;;;;1035353;28;20014;-71
2022/09/29 02:05:47;;;;;;;2.30;1.75;;;12.70;99.90;;;;;;1035196;28;20022;-72
2022/09/29 02:06:28;;;;;;;4.47;1.90;;;12.70;99.90;;;;;;1034964;28;20124;-73
2022/09/29 02:07:05;;;;;;;2.15;1.75;;;12.70;99.90;;;;;;1034839;28;20109;-72
2022/09/29 02:07:42;;;;;;;2.65;1.83;;;12.60;99.90;;;;;;1036084;28;20061;-74
2022/09/29 02:08:17;;;;;;;2.15;1.88;;;12.60;99.90;;;;;;1035272;28;20049;-71
2022/09/29 02:08:54;;;;;;;2.10;1.80;;;12.60;99.90;;;;;;1035895;28;20056;-74
2022/09/29 02:09:30;;;;;;;2.67;1.92;;;12.60;99.90;;;;;;1035233;28;20050;-71
2022/09/29 02:10:05;;;;;;;2.65;2.00;;;12.60;99.90;;;;;;1039607;28;20052;-71
2022/09/29 02:10:44;;;;;;;2.90;1.70;;;12.60;99.90;;;;;;1035017;28;20073;-73
2022/09/29 02:11:16;;;;;;;1.70;1.52;;;12.60;99.90;;;;;;1035318;28;20497;-72
2022/09/29 02:11:50;;;;;;;2.75;1.75;;;12.60;99.90;;;;;;1033604;28;20069;-71
2022/09/29 02:12:24;;;;;;;2.03;1.83;;;12.60;99.90;;;;;;1035212;28;20037;-71
2022/09/29 02:12:58;;;;;;;2.15;1.80;;;12.60;99.90;;;;;;1036470;28;20018;-71
2022/09/29 02:13:38;;;;;;;1.95;1.55;;;12.60;99.90;;;;;;1038212;28;20049;-71
2022/09/29 02:14:09;;;;;;;2.78;1.70;;;12.60;99.90;;;;;;1039857;28;20108;-71
2022/09/29 02:14:44;;;;;;;1.70;1.40;;;12.60;99.90;;;;;;1038912;28;20033;-71
2022/09/29 02:15:22;;;;;;;2.22;2.00;;;12.60;99.90;;;;;;1035505;28;20074;-73
2022/09/29 02:15:56;;;;;;;2.75;1.90;;;12.60;99.90;;;;;;1034879;28;20037;-72
2022/09/29 02:16:30;;;;;;;2.40;2.05;;;12.60;99.90;;;;;;1035062;28;20025;-73
2022/09/29 02:17:18;;;;;;;1.92;1.70;;;12.60;99.90;;;;;;1037288;28;20572;-72
2022/09/29 02:17:51;;;;;;;3.42;1.80;;;12.60;99.90;;;;;;1036306;28;20104;-72
2022/09/29 02:18:27;;;;;;;1.70;1.60;;;12.60;99.90;;;;;;1039115;28;20603;-73
2022/09/29 02:19:14;;;;;;;2.63;2.10;;;12.50;99.90;;;;;;1034875;28;20110;-72
2022/09/29 02:19:46;;;;;;;2.47;2.10;;;12.50;99.90;;;;;;1030687;28;20039;-73
2022/09/29 02:20:17;;;;;;;2.55;1.90;;;12.50;99.90;;;;;;1030849;28;20034;-72
2022/09/29 02:20:49;;;;;;;2.05;1.80;;;12.50;99.90;;;;;;1034755;28;20026;-72
2022/09/29 02:21:21;;;;;;;2.88;1.95;;;12.50;99.90;;;;;;1038798;28;20069;-72
2022/09/29 02:21:53;;;;;;;2.92;1.85;;;12.50;99.90;;;;;;1039177;28;20028;-72
2022/09/29 02:22:24;;;;;;;2.00;1.77;;;12.50;99.90;;;;;;1035182;28;20022;-71
2022/09/29 02:22:55;;;;;;;2.13;1.70;;;12.50;99.90;;;;;;1031070;28;20018;-72
2022/09/29 02:23:25;;;;;;;2.35;2.00;;;12.50;99.90;;;;;;1032033;28;20026;-72
2022/09/29 02:23:56;;;;;;;2.20;2.00;;;12.50;99.90;;;;;;1030692;28;20033;-72
2022/09/29 02:24:27;;;;;;;1.97;1.73;;;12.50;99.90;;;;;;1034506;28;20097;-72
2022/09/29 02:24:58;;;;;;;2.10;1.73;;;12.60;99.90;;;;;;1034707;28;20576;-72
2022/09/29 02:25:29;;;;;;;1.73;1.60;;;12.60;99.90;;;;;;1035000;28;20026;-72
2022/09/29 02:26:01;;;;;;;2.60;1.97;;;12.60;99.90;;;;;;1039878;28;20024;-73
2022/09/29 02:26:33;;;;;;;2.78;2.05;;;12.60;99.90;;;;;;1034862;28;20610;-72
2022/09/29 02:27:04;;;;;;;2.15;1.95;;;12.60;99.90;;;;;;1035731;28;20029;-72
2022/09/29 02:27:35;;;;;;;2.00;1.83;;;12.60;99.90;;;;;;1035322;28;20099;-72
2022/09/29 02:28:07;;;;;;;3.65;1.80;;;12.60;99.90;;;;;;1035209;28;20389;-72
2022/09/29 02:28:38;;;;;;;2.20;1.85;;;12.60;99.90;;;;;;1039763;28;20526;-72
2022/09/29 02:29:09;;;;;;;1.85;1.70;;;12.60;99.90;;;;;;1038804;28;20018;-72
2022/09/29 02:29:40;;;;;;;2.58;1.80;;;12.60;99.90;;;;;;1031972;28;20121;-73
2022/09/29 02:30:11;;;;;;;2.42;2.17;;;12.60;99.90;;;;;;1034892;28;20079;-73
2022/09/29 02:30:42;;;;;;;2.22;2.00;;;12.60;99.90;;;;;;1034766;28;20036;-72
2022/09/29 02:31:13;;;;;;;2.23;1.87;;;12.60;99.90;;;;;;1035829;28;20052;-72
2022/09/29 02:31:45;;;;;;;2.80;2.25;;;12.60;99.90;;;;;;1034737;28;20388;-72
2022/09/29 02:32:18;;;;;;;2.17;1.98;;;12.60;99.90;;;;;;1035863;28;20439;-72
2022/09/29 02:32:49;;;;;;;3.08;2.40;;;12.60;99.90;;;;;;1034896;28;20021;-72
2022/09/29 02:33:22;;;;;;;2.30;1.80;;;12.60;99.90;;;;;;1031304;28;20026;-72
2022/09/29 02:33:52;;;;;;;3.20;1.80;;;12.60;99.90;;;;;;1035833;28;20026;-72
2022/09/29 02:34:23;;;;;;;2.10;1.90;;;12.60;99.90;;;;;;1034660;28;20014;-72
2022/09/29 02:34:55;;;;;;;3.07;2.20;;;12.60;99.90;;;;;;1031994;28;20029;-72
2022/09/29 02:35:51;;;;;;;1.98;1.73;;;12.60;99.90;;;;;;1034827;28;20029;-72
2022/09/29 02:36:22;;;;;;;2.05;1.80;;;12.60;99.90;;;;;;1033249;28;20036;-72
2022/09/29 02:37:08;;;;;;;3.17;1.90;;;12.60;99.90;;;;;;1034704;28;20018;-73
2022/09/29 02:38:09;;;;;;;2.33;2.13;;;12.60;99.90;;;;;;1035472;28;20092;-73
2022/09/29 02:39:03;;;;;;;3.28;2.10;;;12.60;99.90;;;;;;1036949;28;20029;-72
2022/09/29 02:39:55;;;;;;;2.97;2.10;;;12.60;99.90;;;;;;1034604;28;20014;-73
2022/09/29 02:40:45;;;;;;;3.05;1.88;;;12.50;99.90;;;;;;1035357;28;20075;-71
2022/09/29 02:41:41;;;;;;;2.40;2.08;;;12.50;99.90;;;;;;1038233;28;20028;-72
2022/09/29 02:42:24;;;;;;;2.22;2.03;;;12.50;99.90;;;;;;1035376;28;20050;-73
2022/09/29 02:43:16;;;;;;;2.58;2.17;;;12.50;99.90;;;;;;1036000;28;20022;-72
2022/09/29 02:43:58;;;;;;;2.95;2.13;;;12.50;99.90;;;;;;1032497;28;20042;-71
2022/09/29 02:44:57;;;;;;;4.10;2.25;;;12.50;99.90;;;;;;1035621;28;20369;-72
2022/09/29 02:45:44;;;;;;;2.38;2.17;;;12.50;99.90;;;;;;1035631;28;20034;-72
2022/09/29 02:46:31;;;;;;;2.42;2.00;;;12.50;99.90;;;;;;1034720;28;20022;-72
2022/09/29 02:47:07;;;;;;;2.33;2.10;;;12.50;99.90;;;;;;1035285;28;20404;-72
2022/09/29 02:47:48;;;;;;;2.88;2.50;;;12.50;99.90;;;;;;1036591;28;20024;-72
2022/09/29 02:48:24;;;;;;;2.92;2.00;;;12.50;99.90;;;;;;1035383;28;20022;-73
2022/09/29 02:49:19;;;;;;;2.10;1.83;;;12.50;99.90;;;;;;1030917;28;20050;-72
2022/09/29 02:50:31;;;;;;;3.05;2.20;;;12.50;99.90;;;;;;1034925;28;20064;-72
2022/09/29 02:51:13;;;;;;;2.47;2.28;;;12.50;99.90;;;;;;1038889;28;20099;-72
2022/09/29 02:51:57;;;;;;;3.13;2.22;;;12.50;99.90;;;;;;1034676;28;20152;-71
2022/09/29 02:52:33;;;;;;;3.25;2.33;;;12.50;99.90;;;;;;1034565;28;20021;-72
2022/09/29 02:53:19;;;;;;;2.53;2.08;;;12.40;99.90;;;;;;1034839;28;20093;-73
2022/09/29 02:54:16;;;;;;;3.53;2.30;;;12.50;99.90;;;;;;1034805;28;20596;-72
2022/09/29 02:55:14;;;;;;;3.13;2.65;;;12.40;99.90;;;;;;1035689;28;20061;-72
2022/09/29 02:56:01;;;;;;;2.40;2.03;;;12.40;99.90;;;;;;1035165;28;20018;-72
2022/09/29 02:57:04;;;;;;;3.22;2.60;;;12.40;99.90;;;;;;1036039;28;20600;-72
2022/09/29 02:57:50;;;;;;;2.70;2.03;;;12.40;99.90;;;;;;1034987;28;20030;-72
2022/09/29 02:58:56;;;;;;;3.22;2.45;;;12.40;99.90;;;;;;1035022;28;20040;-73
2022/09/29 02:59:30;;;;;;;;;;;12.40;99.90;;;;;;1035111;28;20053;-71
2022/09/29 03:00:08;;;;;;;2.78;2.40;;;12.40;99.90;;;;;;1035482;28;19913;-72
2022/09/29 03:00:39;;;;;;;2.83;2.53;;;12.40;99.90;;;;;;1034450;28;20033;-73
2022/09/29 03:01:09;;;;;;;2.50;2.30;;;12.40;99.90;;;;;;1035531;28;20022;-72
2022/09/29 03:01:56;;;;;;;2.83;2.40;;;12.40;99.90;;;;;;1034596;28;20032;-72
2022/09/29 03:02:27;;;;;;;2.38;2.08;;;12.40;99.90;;;;;;1037883;28;20018;-72
2022/09/29 03:02:57;;;;;;;2.63;2.27;;;12.40;99.90;;;;;;1038703;28;20014;-72
2022/09/29 03:03:28;;;;;;;2.83;2.50;;;12.50;99.90;;;;;;1036674;28;20017;-72
2022/09/29 03:03:59;;;;;;;3.80;2.67;;;12.50;99.90;;;;;;1035888;28;20034;-72
2022/09/29 03:04:30;;;;;;;3.88;2.65;;;12.50;99.90;;;;;;1034967;28;20018;-72
2022/09/29 03:05:02;;;;;;;2.53;2.30;;;12.50;99.90;;;;;;1039702;28;20120;-73
2022/09/29 03:05:33;;;;;;;5.30;2.30;;;12.50;99.90;;;;;;1038730;28;20399;-72
2022/09/29 03:06:04;;;;;;;4.17;2.40;;;12.50;99.90;;;;;;1034533;28;20014;-73
2022/09/29 03:06:34;;;;;;;2.63;2.27;;;12.50;99.90;;;;;;1035500;28;20016;-73
2022/09/29 03:07:05;;;;;;;2.50;1.83;;;12.50;99.90;;;;;;1034692;28;20014;-73
2022/09/29 03:07:37;;;;;;;2.27;2.07;;;12.50;99.90;;;;;;1035620;28;20030;-72
2022/09/29 03:08:07;;;;;;;2.45;2.17;;;12.60;99.90;;;;;;1035002;28;20026;-72
2022/09/29 03:08:38;;;;;;;2.73;2.30;;;12.60;99.90;;;;;;1035125;28;20041;-73
2022/09/29 03:09:09;;;;;;;2.33;2.00;;;12.60;99.90;;;;;;1035979;28;20090;-73
2022/09/29 03:09:40;;;;;;;4.20;2.10;;;12.60;99.90;;;;;;1034935;28;20077;-71
2022/09/29 03:10:12;;;;;;;2.93;2.37;;;12.60;99.90;;;;;;1039472;28;20022;-73
2022/09/29 03:10:42;;;;;;;3.05;2.42;;;12.70;99.90;;;;;;1038771;28;20093;-71
2022/09/29 03:11:13;;;;;;;1.90;1.80;;;12.70;99.90;;;;;;1034350;28;20048;-72
2022/09/29 03:11:43;;;;;;;5.60;2.40;;;12.70;99.90;;;;;;1035593;28;20025;-71
2022/09/29 03:12:14;;;;;;;3.93;2.37;;;12.80;99.90;;;;;;1034809;28;20034;-71
2022/09/29 03:12:46;;;;;;;2.47;2.13;;;12.80;99.90;;;;;;1035150;28;20018;-72
2022/09/29 03:13:16;;;;;;;2.70;2.22;;;12.80;99.90;;;;;;1038560;28;20024;-71
2022/09/29 03:13:47;;;;;;;2.60;2.30;;;12.80;99.90;;;;;;1038621;28;20104;-71
2022/09/29 03:14:17;;;;;;;3.53;2.23;;;12.90;99.90;;;;;;1035501;28;20018;-71